Springfield, IL (62705)

4:45 PM CDT on October 23, 2014 (GMT -0500)
Downtown SPI (near South) | Change Station
CLOSE
Current Station
Personal Weather Station
Location: Springfield, IL
Elevation: 600 ft
Nearby Weather Stations

Elev 600 ft 39.78 °N, 89.66 °W | Updated 48 seconds ago

Mostly Cloudy
Mostly Cloudy
61.9 °F
Feels Like 61.9 °F
N
3.0
Wind Variable Wind from SSE
Gusts 4.0 mph

Today
High -- | Low -- °F
--% Chance of Precip.
Yesterday
High -- | Low -- °F
Precip. -- in
7:17 AM 6:07 PM
Waning Crescent, 0% visible
Pressure 30.11 in
Visibility 10.0 miles
Clouds Clear
Dew Point 46 °F
Humidity 57%
Rainfall 0.00 in
Snow Depth Not available.
UV 2 out of 12
Pollen .90 out of 12
Ozone Good
PM2.5 Good
Flu Activity No Activity
METAR KSPI 232052Z 19006KT 10SM CLR 17/06 A3010 RMK AO2 SLP194 T01670061 56025

More Conditions Fewer Conditions

Pressure 30.11 in
Visibility 10.0 miles
Clouds Clear
Dew Point 46 °F
Humidity 57%
Rainfall 0.00 in
Snow Depth Not available.
UV 2 out of 12
Pollen .90 out of 12
Ozone Good
PM2.5 Good
Flu Activity No Activity
METAR KSPI 232052Z 19006KT 10SM CLR 17/06 A3010 RMK AO2 SLP194 T01670061 56025

More Conditions Fewer Conditions

10-Day Weather Forecast

Almanac

Astronomy

Oct. 23, 2014 Rise Set
Actual Time 7:17 AM CDT 6:07 PM CDT
Civil Twilight 6:49 AM CDT 6:35 PM CDT
Nautical Twilight 6:18 AM CDT 7:06 PM CDT
Astronomical Twilight 5:46 AM CDT 7:38 PM CDT
Moon 6:57 AM CDT 6:09 PM CDT
Length of Visible Light 11h 45m
Length of Day
10h 50m
Tomorrow will be 2m 25s shorter.
Waning Crescent, 0% of the Moon is Illuminated
Today
Waning Crescent
Oct 23
New
Oct 30
First Quarter
Nov 6
Full
Nov 14
Last Quarter

Today's Extremes

State Highs State Lows

Community

WunderPhotos

Upload Photos

1,764,381 photos uploaded!

WunderBlogs® & News

Nearby

Air Quality

  Air Quality AQ Index Pollutant
Yesterday Good
OZONE
Yesterday Good
PM2.5
Current Good
PM2.5
Current Good
OZONE
Thursday Good
PM2.5
Friday Good
PM2.5
Saturday Good
PM2.5
Sunday Good
PM2.5
Monday Good
PM2.5

Snow Depth

Station Depth Elevation
No new snow has been reported.

Earthquake Activity

City Distance Mag. Time & Date
No recent earthquake activity has been reported nearby.
Minimum magnitude displayed is 2.5.

Coastal Water Temperatures

Place Temperature
No Stations Reporting

Nearby Weather Stations